createdAt,value
2022-08-18T00:01:07.973Z,22.90
2022-08-18T00:03:56.255Z,22.70
2022-08-18T00:06:28.654Z,22.60
2022-08-18T00:08:58.048Z,22.50
2022-08-18T00:11:26.445Z,22.50
2022-08-18T00:13:54.358Z,22.50
2022-08-18T00:16:22.256Z,22.40
2022-08-18T00:18:51.407Z,22.60
2022-08-18T00:21:19.640Z,22.80
2022-08-18T00:23:47.517Z,22.90
2022-08-18T00:26:15.801Z,23.00
2022-08-18T00:28:43.619Z,22.90
2022-08-18T00:31:11.521Z,22.70
2022-08-18T00:33:39.417Z,22.50
2022-08-18T00:36:08.603Z,22.50
2022-08-18T00:38:36.467Z,22.70
2022-08-18T00:41:05.130Z,22.60
2022-08-18T00:43:40.139Z,22.30
2022-08-18T00:46:10.128Z,22.10
2022-08-18T00:48:38.324Z,22.00
2022-08-18T00:51:13.341Z,21.90
2022-08-18T00:53:45.844Z,22.40
2022-08-18T00:56:19.404Z,22.30
2022-08-18T00:58:53.342Z,22.30
2022-08-18T01:01:24.293Z,22.50
2022-08-18T01:04:00.294Z,22.30
2022-08-18T01:06:36.767Z,22.30
2022-08-18T01:09:04.981Z,22.40
2022-08-18T01:11:37.617Z,22.40
2022-08-18T01:14:06.934Z,22.60
2022-08-18T01:16:57.186Z,22.70
2022-08-18T01:19:45.002Z,22.60
2022-08-18T01:22:19.889Z,22.50
2022-08-18T01:25:08.023Z,22.20
2022-08-18T01:27:35.865Z,22.10
2022-08-18T01:30:07.339Z,22.00
2022-08-18T01:32:35.207Z,22.30
2022-08-18T01:35:03.370Z,22.40
2022-08-18T01:37:31.245Z,22.50
2022-08-18T01:41:22.073Z,22.30
2022-08-18T01:42:48.233Z,22.40
2022-08-18T01:45:20.538Z,22.20
2022-08-18T01:47:50.537Z,22.50
2022-08-18T01:50:19.255Z,22.50
2022-08-18T01:52:47.282Z,22.30
2022-08-18T01:55:18.064Z,22.50
2022-08-18T01:57:46.913Z,22.90
2022-08-18T02:00:18.003Z,22.80
2022-08-18T02:02:47.775Z,22.80
2022-08-18T02:05:34.562Z,23.00
2022-08-18T02:08:03.529Z,22.90
2022-08-18T02:10:33.059Z,22.80
2022-08-18T02:13:00.967Z,22.80
2022-08-18T02:15:28.933Z,22.60
2022-08-18T02:17:56.924Z,22.50
2022-08-18T02:20:25.099Z,22.50
2022-08-18T02:22:53.578Z,22.60
2022-08-18T02:25:21.782Z,22.60
2022-08-18T02:27:51.336Z,22.70
2022-08-18T02:30:20.081Z,22.60
2022-08-18T02:32:48.441Z,22.60
2022-08-18T02:35:16.239Z,22.30
2022-08-18T02:37:47.663Z,22.20
2022-08-18T02:40:16.830Z,22.00
2022-08-18T02:42:45.385Z,21.90
2022-08-18T02:45:15.378Z,22.10
2022-08-18T02:47:44.816Z,22.10
2022-08-18T02:50:13.155Z,22.30
2022-08-18T02:52:41.264Z,21.90
2022-08-18T02:55:10.909Z,21.80
2022-08-18T02:57:43.356Z,22.00
2022-08-18T03:00:13.879Z,22.20
2022-08-18T03:02:46.735Z,22.40
2022-08-18T03:05:15.005Z,22.50
2022-08-18T03:07:43.337Z,22.30
2022-08-18T03:10:32.678Z,22.40
2022-08-18T03:13:00.102Z,22.00
2022-08-18T03:15:28.147Z,22.20
2022-08-18T03:17:58.047Z,22.20
2022-08-18T03:20:30.555Z,22.40
2022-08-18T03:23:00.019Z,22.20
2022-08-18T03:25:33.846Z,21.90
2022-08-18T03:28:03.663Z,22.00
2022-08-18T03:30:31.511Z,21.90
2022-08-18T03:33:00.681Z,22.10
2022-08-18T03:35:28.552Z,21.90
2022-08-18T03:37:59.990Z,22.00
2022-08-18T03:40:27.995Z,21.70
2022-08-18T03:42:55.841Z,21.80
2022-08-18T03:45:24.281Z,21.90
2022-08-18T03:47:52.546Z,21.90
2022-08-18T03:50:25.443Z,22.10
2022-08-18T03:52:53.564Z,22.40
2022-08-18T03:55:21.453Z,22.60
2022-08-18T03:57:49.311Z,22.50
2022-08-18T04:00:17.942Z,22.50
2022-08-18T04:02:45.872Z,22.50
2022-08-18T04:05:14.041Z,22.30
2022-08-18T04:07:44.482Z,22.20
2022-08-18T04:10:13.969Z,22.20
2022-08-18T04:12:47.791Z,21.70
2022-08-18T04:15:17.246Z,21.70
2022-08-18T04:18:02.983Z,22.20
2022-08-18T04:20:33.379Z,22.40
2022-08-18T04:23:03.097Z,22.10
2022-08-18T04:25:33.413Z,21.80
2022-08-18T04:28:03.328Z,21.80
2022-08-18T04:30:31.307Z,21.70
2022-08-18T04:32:59.179Z,21.80
2022-08-18T04:35:29.101Z,21.80
2022-08-18T04:37:56.964Z,22.10
2022-08-18T04:40:27.170Z,22.50
2022-08-18T04:42:55.139Z,22.60
2022-08-18T04:45:22.973Z,22.50
2022-08-18T04:47:53.307Z,22.50
2022-08-18T04:50:21.427Z,22.60
2022-08-18T04:53:06.674Z,22.60
2022-08-18T04:55:36.208Z,22.40
2022-08-18T04:58:04.026Z,22.50
2022-08-18T05:00:31.826Z,22.40
2022-08-18T05:03:00.250Z,22.30
2022-08-18T05:05:28.373Z,22.60
2022-08-18T05:07:56.309Z,22.60
2022-08-18T05:10:24.120Z,22.20
2022-08-18T05:12:53.423Z,22.50
2022-08-18T05:15:21.382Z,22.70
2022-08-18T05:17:50.668Z,22.00
2022-08-18T05:20:19.703Z,22.20
2022-08-18T05:22:47.668Z,22.10
2022-08-18T05:25:16.085Z,22.10
2022-08-18T05:27:44.753Z,22.10
2022-08-18T05:30:15.146Z,22.00
2022-08-18T05:32:48.574Z,22.10
2022-08-18T05:35:24.160Z,22.40
2022-08-18T05:38:07.644Z,22.50
2022-08-18T05:40:36.535Z,22.60
2022-08-18T05:43:05.642Z,22.60
2022-08-18T05:45:35.816Z,22.60
2022-08-18T05:48:03.930Z,22.60
2022-08-18T05:50:35.012Z,22.10
2022-08-18T05:53:14.118Z,22.00
2022-08-18T05:56:03.519Z,22.30
2022-08-18T05:58:35.023Z,22.50
2022-08-18T06:01:08.849Z,22.80
2022-08-18T06:03:45.488Z,22.70
2022-08-18T06:06:19.689Z,22.80
2022-08-18T06:08:52.071Z,22.50
2022-08-18T06:11:22.551Z,22.50
2022-08-18T06:13:59.301Z,22.40
2022-08-18T06:16:47.577Z,22.60
2022-08-18T06:19:36.027Z,22.60
2022-08-18T06:22:14.768Z,22.70
2022-08-18T06:24:47.704Z,22.60
2022-08-18T06:27:26.856Z,22.30
2022-08-18T06:30:05.243Z,22.00
2022-08-18T06:32:52.794Z,22.00
2022-08-18T06:35:30.688Z,21.70
2022-08-18T06:38:20.766Z,22.00
2022-08-18T06:40:49.452Z,22.10
2022-08-18T06:43:19.578Z,21.70
2022-08-18T06:45:52.200Z,22.30
2022-08-18T06:48:32.049Z,22.30
2022-08-18T06:51:02.279Z,22.40
2022-08-18T06:53:52.166Z,22.60
2022-08-18T06:56:27.041Z,23.00
2022-08-18T06:58:55.384Z,22.70
2022-08-18T07:01:25.821Z,23.00
2022-08-18T07:03:58.220Z,22.80
2022-08-18T07:06:32.107Z,22.50
2022-08-18T07:09:20.419Z,22.50
2022-08-18T07:12:04.382Z,22.80
2022-08-18T07:14:32.971Z,23.00
2022-08-18T07:17:08.552Z,23.00
2022-08-18T07:19:39.062Z,22.80
2022-08-18T07:22:10.514Z,22.40
2022-08-18T07:24:42.081Z,22.40
2022-08-18T07:27:12.823Z,22.50
2022-08-18T07:30:01.256Z,22.80
2022-08-18T07:32:34.326Z,22.80
2022-08-18T07:35:06.849Z,22.90
2022-08-18T07:37:43.989Z,22.80
2022-08-18T07:40:21.835Z,22.70
2022-08-18T07:43:01.189Z,22.60
2022-08-18T07:45:34.925Z,22.40
2022-08-18T07:48:34.833Z,22.60
2022-08-18T07:51:08.819Z,22.70
2022-08-18T07:53:55.723Z,22.60
2022-08-18T07:56:33.567Z,22.90
2022-08-18T07:59:07.035Z,22.80
2022-08-18T08:01:42.131Z,22.80
2022-08-18T08:04:25.436Z,22.80
2022-08-18T08:07:23.929Z,22.80
2022-08-18T08:10:04.082Z,23.00
2022-08-18T08:12:38.341Z,23.10
2022-08-18T08:15:18.642Z,23.30
2022-08-18T08:18:05.609Z,23.40
2022-08-18T08:20:39.876Z,23.60
2022-08-18T08:23:21.936Z,23.70
2022-08-18T08:26:03.020Z,24.20
2022-08-18T08:28:43.979Z,24.30
2022-08-18T08:31:36.126Z,24.40
2022-08-18T08:34:11.855Z,24.20
2022-08-18T08:36:41.713Z,24.30
2022-08-18T08:39:17.287Z,24.40
2022-08-18T08:41:51.092Z,24.50
2022-08-18T08:44:23.062Z,24.60
2022-08-18T08:46:57.271Z,24.60
2022-08-18T08:49:35.714Z,24.30
2022-08-18T08:52:10.722Z,24.60
2022-08-18T08:54:47.364Z,24.30
2022-08-18T08:57:16.759Z,24.10
2022-08-18T08:59:48.937Z,24.10
2022-08-18T09:02:48.116Z,24.00
2022-08-18T09:05:20.667Z,23.80
2022-08-18T09:08:13.855Z,24.40
2022-08-18T09:11:15.135Z,24.50
2022-08-18T09:14:12.719Z,24.60
2022-08-18T09:16:57.431Z,24.50
2022-08-18T09:19:58.597Z,24.50
2022-08-18T09:22:37.514Z,24.60
2022-08-18T09:25:11.860Z,24.90
2022-08-18T09:28:09.435Z,25.00
2022-08-18T09:30:45.007Z,25.00
2022-08-18T09:33:34.682Z,24.90
2022-08-18T09:39:35.213Z,25.10
2022-08-18T09:42:08.076Z,24.50
2022-08-18T09:45:01.930Z,24.30
2022-08-18T09:48:01.898Z,24.00
2022-08-18T09:50:38.303Z,24.10
2022-08-18T09:53:36.720Z,24.50
2022-08-18T09:56:06.866Z,24.50
2022-08-18T09:58:51.098Z,24.60
2022-08-18T10:01:33.160Z,24.80
2022-08-18T10:04:31.099Z,24.70
2022-08-18T10:07:18.683Z,24.40
2022-08-18T10:09:56.236Z,24.30
2022-08-18T10:12:33.992Z,24.30
2022-08-18T10:15:27.264Z,24.30
2022-08-18T10:18:24.194Z,24.30
2022-08-18T10:21:01.788Z,24.40
2022-08-18T10:24:14.553Z,24.30
2022-08-18T10:27:09.936Z,24.20
2022-08-18T10:29:54.294Z,24.30
2022-08-18T10:32:54.273Z,24.30
2022-08-18T10:36:07.849Z,24.40
2022-08-18T10:38:49.124Z,24.70
2022-08-18T10:41:30.843Z,25.10
2022-08-18T10:44:00.994Z,25.00
2022-08-18T10:46:34.391Z,24.80
2022-08-18T10:49:21.406Z,24.80
2022-08-18T10:52:35.252Z,25.00
2022-08-18T10:55:47.927Z,25.00
2022-08-18T10:58:34.339Z,25.10
2022-08-18T11:01:17.948Z,25.30
2022-08-18T11:04:32.676Z,24.90
2022-08-18T11:06:58.644Z,24.80
2022-08-18T11:09:29.008Z,24.50
2022-08-18T11:15:22.529Z,24.30
2022-08-18T11:18:10.795Z,24.60
2022-08-18T11:20:43.176Z,24.60
2022-08-18T11:23:15.991Z,24.30
2022-08-18T11:25:45.673Z,24.80
2022-08-18T11:28:19.432Z,24.90
2022-08-18T11:30:51.433Z,25.20
2022-08-18T11:33:22.856Z,25.30
2022-08-18T11:35:57.761Z,25.00
2022-08-18T11:38:29.609Z,24.50
2022-08-18T11:44:07.285Z,24.80
2022-08-18T11:46:40.683Z,24.50
2022-08-18T11:49:20.223Z,24.60
2022-08-18T11:51:57.834Z,24.60
2022-08-18T11:54:50.627Z,24.80
2022-08-18T11:57:53.379Z,25.10
2022-08-18T12:00:44.334Z,24.80
2022-08-18T12:03:21.555Z,24.90
2022-08-18T12:05:56.041Z,25.10
2022-08-18T12:08:56.515Z,25.20
2022-08-18T12:11:27.504Z,25.20
2022-08-18T12:14:32.456Z,25.40
2022-08-18T12:16:57.469Z,25.50
2022-08-18T12:19:30.711Z,25.60
2022-08-18T12:22:00.492Z,25.70
2022-08-18T12:27:22.462Z,25.50
2022-08-18T12:29:52.429Z,25.30
2022-08-18T12:32:41.425Z,25.20
2022-08-18T12:35:13.729Z,25.20
2022-08-18T12:38:05.061Z,25.30
2022-08-18T12:40:32.522Z,25.60
2022-08-18T12:43:01.016Z,25.60
2022-08-18T12:45:30.837Z,25.70
2022-08-18T12:48:02.433Z,25.80
2022-08-18T12:50:35.155Z,25.70
2022-08-18T12:53:05.858Z,25.00
2022-08-18T12:58:24.761Z,25.00
2022-08-18T13:00:53.055Z,25.40
2022-08-18T13:03:22.415Z,25.70
2022-08-18T13:05:50.382Z,25.80
2022-08-18T13:08:30.188Z,25.90
2022-08-18T13:11:14.560Z,26.00
2022-08-18T13:13:53.271Z,25.60
2022-08-18T13:16:30.622Z,25.30
2022-08-18T13:19:00.522Z,25.50
2022-08-18T13:21:28.741Z,25.60
2022-08-18T13:24:09.682Z,25.60
2022-08-18T13:26:42.063Z,25.80
2022-08-18T13:29:10.629Z,25.70
2022-08-18T13:31:39.012Z,25.60
2022-08-18T13:34:11.877Z,25.50
2022-08-18T13:36:48.231Z,25.40
2022-08-18T13:39:17.969Z,25.40
2022-08-18T13:41:48.912Z,25.40
2022-08-18T13:44:18.567Z,25.50
2022-08-18T13:46:48.766Z,25.60
2022-08-18T13:49:23.507Z,25.50
2022-08-18T13:51:57.936Z,25.50
2022-08-18T13:54:34.031Z,25.40
2022-08-18T13:57:04.949Z,25.60
2022-08-18T13:59:34.478Z,25.60
2022-08-18T14:02:05.803Z,25.60
2022-08-18T14:04:38.624Z,25.60
2022-08-18T14:07:10.472Z,25.60
2022-08-18T14:09:40.378Z,26.00
2022-08-18T14:12:15.996Z,25.90
2022-08-18T14:14:52.684Z,26.00
2022-08-18T14:17:22.253Z,26.10
2022-08-18T14:20:14.890Z,26.00
2022-08-18T14:23:00.608Z,26.00
2022-08-18T14:25:46.226Z,26.00
2022-08-18T14:28:15.250Z,26.10
2022-08-18T14:30:50.868Z,26.20
2022-08-18T14:33:34.230Z,26.30
2022-08-18T14:36:13.521Z,26.30
2022-08-18T14:38:42.210Z,26.30
2022-08-18T14:41:13.758Z,26.20
2022-08-18T14:44:11.419Z,26.10
2022-08-18T14:46:33.195Z,26.10
2022-08-18T14:49:03.944Z,26.10
2022-08-18T14:51:33.821Z,26.10
2022-08-18T14:54:02.051Z,26.30
2022-08-18T14:56:33.529Z,26.40
2022-08-18T14:59:07.577Z,26.40
2022-08-18T15:01:36.338Z,26.30
2022-08-18T15:04:18.489Z,26.30
2022-08-18T15:06:56.108Z,26.40
2022-08-18T15:09:26.987Z,26.50
2022-08-18T15:11:58.284Z,26.50
2022-08-18T15:14:32.689Z,26.60
2022-08-18T15:17:03.509Z,26.70
2022-08-18T15:19:58.683Z,26.60
2022-08-18T15:22:47.873Z,26.70
2022-08-18T15:25:36.398Z,26.70
2022-08-18T15:28:06.046Z,26.60
2022-08-18T15:30:45.795Z,26.50
2022-08-18T15:33:23.644Z,26.50
2022-08-18T15:35:53.505Z,26.60
2022-08-18T15:38:24.780Z,26.60
2022-08-18T15:40:58.046Z,26.60
2022-08-18T15:43:29.089Z,26.70
2022-08-18T15:46:00.182Z,26.70
2022-08-18T15:48:30.535Z,26.70
2022-08-18T15:51:01.992Z,26.60
2022-08-18T15:53:44.832Z,26.60
2022-08-18T15:56:15.859Z,26.50
2022-08-18T15:58:49.134Z,26.50
2022-08-18T16:01:21.113Z,26.50
2022-08-18T16:03:59.593Z,26.60
2022-08-18T16:06:32.487Z,26.60
2022-08-18T16:09:03.077Z,26.50
2022-08-18T16:11:31.661Z,26.60
2022-08-18T16:13:59.964Z,26.50
2022-08-18T16:16:35.776Z,26.40
2022-08-18T16:19:05.612Z,26.30
2022-08-18T16:21:34.173Z,26.30
2022-08-18T16:24:03.449Z,26.30
2022-08-18T16:26:31.750Z,26.30
2022-08-18T16:29:01.752Z,26.30
2022-08-18T16:31:30.189Z,26.40
2022-08-18T16:33:59.162Z,26.40
2022-08-18T16:36:27.038Z,26.50
2022-08-18T16:38:58.423Z,26.40
2022-08-18T16:41:27.894Z,26.60
2022-08-18T16:43:56.226Z,26.60
2022-08-18T16:46:27.043Z,26.50
2022-08-18T16:48:55.950Z,26.30
2022-08-18T16:51:26.959Z,26.50
2022-08-18T16:53:55.391Z,26.50
2022-08-18T16:56:25.392Z,26.30
2022-08-18T16:59:12.462Z,26.30
2022-08-18T17:01:58.382Z,26.30
2022-08-18T17:04:29.888Z,26.40
2022-08-18T17:06:59.686Z,26.30
2022-08-18T17:09:28.033Z,26.30
2022-08-18T17:11:55.865Z,26.30
2022-08-18T17:14:27.665Z,26.30
2022-08-18T17:16:56.716Z,26.30
2022-08-18T17:19:26.081Z,26.40
2022-08-18T17:21:54.553Z,26.20
2022-08-18T17:24:31.270Z,26.20
2022-08-18T17:27:25.555Z,26.20
2022-08-18T17:30:02.433Z,26.20
2022-08-18T17:32:40.119Z,26.10
2022-08-18T17:35:14.496Z,26.10
2022-08-18T17:37:49.280Z,26.10
2022-08-18T17:40:24.277Z,26.00
2022-08-18T17:42:57.341Z,26.00
2022-08-18T17:45:28.465Z,26.00
2022-08-18T17:48:01.068Z,26.20
2022-08-18T17:50:53.370Z,26.30
2022-08-18T17:53:22.508Z,26.10
2022-08-18T17:55:59.559Z,26.00
2022-08-18T17:58:37.947Z,26.10
2022-08-18T18:01:07.611Z,26.20
2022-08-18T18:03:35.846Z,26.10
2022-08-18T18:06:09.901Z,26.00
2022-08-18T18:08:57.782Z,26.00
2022-08-18T18:11:28.960Z,25.90
2022-08-18T18:13:56.790Z,25.90
2022-08-18T18:16:34.735Z,25.80
2022-08-18T18:19:05.889Z,26.10
2022-08-18T18:22:00.575Z,26.00
2022-08-18T18:24:31.855Z,26.00
2022-08-18T18:26:59.994Z,25.90
2022-08-18T18:29:33.415Z,26.00
2022-08-18T18:32:19.958Z,25.90
2022-08-18T18:35:05.135Z,25.90
2022-08-18T18:37:33.333Z,26.10
2022-08-18T18:40:03.975Z,25.80
2022-08-18T18:42:33.917Z,25.80
2022-08-18T18:45:03.223Z,25.80
2022-08-18T18:47:45.441Z,25.80
2022-08-18T18:50:20.133Z,25.70
2022-08-18T18:52:58.418Z,25.90
2022-08-18T18:55:28.817Z,25.70
2022-08-18T18:58:12.702Z,25.80
2022-08-18T19:00:54.087Z,26.00
2022-08-18T19:03:33.883Z,25.60
2022-08-18T19:06:15.230Z,25.60
2022-08-18T19:08:51.841Z,25.50
2022-08-18T19:11:29.445Z,25.50
2022-08-18T19:14:03.680Z,25.50
2022-08-18T19:16:40.843Z,25.40
2022-08-18T19:19:38.394Z,25.10
2022-08-18T19:22:09.886Z,25.20
2022-08-18T19:24:44.222Z,24.90
2022-08-18T19:27:18.600Z,24.80
2022-08-18T19:29:53.098Z,25.00
2022-08-18T19:32:27.778Z,25.10
2022-08-18T19:34:58.438Z,25.00
2022-08-18T19:37:32.365Z,25.00
2022-08-18T19:40:09.136Z,25.00
2022-08-18T19:42:42.345Z,25.00
2022-08-18T19:45:20.678Z,25.00
2022-08-18T19:47:55.532Z,24.80
2022-08-18T19:50:31.547Z,24.90
2022-08-18T19:53:20.391Z,24.90
2022-08-18T19:56:04.548Z,25.10
2022-08-18T19:59:15.420Z,25.10
2022-08-18T20:01:56.534Z,24.50
2022-08-18T20:04:36.375Z,24.60
2022-08-18T20:07:19.545Z,24.70
2022-08-18T20:10:24.050Z,24.30
2022-08-18T20:13:08.015Z,24.20
2022-08-18T20:15:36.235Z,24.10
2022-08-18T20:18:18.957Z,23.80
2022-08-18T20:21:23.454Z,23.90
2022-08-18T20:24:05.825Z,24.10
2022-08-18T20:26:49.018Z,24.00
2022-08-18T20:29:18.406Z,24.00
2022-08-18T20:31:54.305Z,23.90
2022-08-18T20:34:24.630Z,23.80
2022-08-18T20:36:53.503Z,23.90
2022-08-18T20:39:45.675Z,23.60
2022-08-18T20:42:51.565Z,23.30
2022-08-18T20:45:29.001Z,23.50
2022-08-18T20:48:20.011Z,23.60
2022-08-18T20:51:09.203Z,23.50
2022-08-18T20:54:03.435Z,23.40
2022-08-18T20:56:43.243Z,23.40
2022-08-18T20:59:18.211Z,23.20
2022-08-18T21:01:55.696Z,23.10
2022-08-18T21:04:47.381Z,23.30
2022-08-18T21:07:35.875Z,23.00
2022-08-18T21:10:12.828Z,23.20
2022-08-18T21:12:52.529Z,23.00
2022-08-18T21:15:23.980Z,23.00
2022-08-18T21:17:59.059Z,23.10
2022-08-18T21:20:29.012Z,23.20
2022-08-18T21:23:07.599Z,23.30
2022-08-18T21:25:36.223Z,23.40
2022-08-18T21:28:07.279Z,23.30
2022-08-18T21:30:35.246Z,23.00
2022-08-18T21:33:20.777Z,23.00
2022-08-18T21:35:48.876Z,23.20
2022-08-18T21:38:25.002Z,23.30
2022-08-18T21:40:57.955Z,23.30
2022-08-18T21:43:49.132Z,23.10
2022-08-18T21:46:24.862Z,23.30
2022-08-18T21:48:56.043Z,23.20
2022-08-18T21:51:27.172Z,23.40
2022-08-18T21:53:55.358Z,23.20
2022-08-18T21:56:25.659Z,23.00
2022-08-18T21:59:08.047Z,22.80
2022-08-18T22:01:36.828Z,22.80
2022-08-18T22:04:19.112Z,22.60
2022-08-18T22:06:52.585Z,22.70
2022-08-18T22:09:40.126Z,22.60
2022-08-18T22:12:40.879Z,22.70
2022-08-18T22:15:13.836Z,22.70
2022-08-18T22:17:50.568Z,22.90
2022-08-18T22:20:45.810Z,22.70
2022-08-18T22:23:55.901Z,22.70
2022-08-18T22:26:28.963Z,22.80
2022-08-18T22:29:01.026Z,23.00
2022-08-18T22:31:32.898Z,23.00
2022-08-18T22:34:06.253Z,23.00
2022-08-18T22:36:37.374Z,22.70
2022-08-18T22:39:08.425Z,22.80
2022-08-18T22:41:36.926Z,22.60
2022-08-18T22:44:05.490Z,22.40
2022-08-18T22:46:36.271Z,22.40
2022-08-18T22:49:04.451Z,22.60
2022-08-18T22:51:36.141Z,22.70
2022-08-18T22:54:06.058Z,22.60
2022-08-18T22:56:34.631Z,22.40
2022-08-18T22:59:15.863Z,22.40
2022-08-18T23:01:48.908Z,22.40
2022-08-18T23:04:18.504Z,22.40
2022-08-18T23:06:51.678Z,22.40
2022-08-18T23:09:21.690Z,22.50
2022-08-18T23:11:49.640Z,22.40
2022-08-18T23:14:17.527Z,22.20
2022-08-18T23:16:46.970Z,22.00
2022-08-18T23:19:16.438Z,22.10
2022-08-18T23:21:46.307Z,21.90
2022-08-18T23:24:16.562Z,21.80
2022-08-18T23:26:44.428Z,21.70
2022-08-18T23:29:14.325Z,21.90
2022-08-18T23:31:44.825Z,22.40
2022-08-18T23:34:17.121Z,22.60
2022-08-18T23:36:46.481Z,22.30
2022-08-18T23:39:14.910Z,22.00
2022-08-18T23:41:42.818Z,21.80
2022-08-18T23:44:13.650Z,21.70
2022-08-18T23:46:44.499Z,21.90
2022-08-18T23:49:14.767Z,21.90
2022-08-18T23:51:44.852Z,22.00
2022-08-18T23:54:14.538Z,21.60
2022-08-18T23:56:42.675Z,21.90
2022-08-18T23:59:11.280Z,22.40
